createdAt,value
2022-08-24T00:01:18.948Z,19.50
2022-08-24T00:03:48.691Z,19.40
2022-08-24T00:06:25.359Z,19.50
2022-08-24T00:08:55.030Z,19.40
2022-08-24T00:11:23.524Z,19.40
2022-08-24T00:13:51.964Z,19.40
2022-08-24T00:16:22.229Z,19.40
2022-08-24T00:18:50.678Z,19.40
2022-08-24T00:21:19.985Z,19.40
2022-08-24T00:23:49.473Z,19.40
2022-08-24T00:26:19.406Z,19.30
2022-08-24T00:28:57.123Z,19.30
2022-08-24T00:31:26.747Z,19.30
2022-08-24T00:33:56.391Z,19.20
2022-08-24T00:36:24.777Z,19.20
2022-08-24T00:38:53.952Z,19.20
2022-08-24T00:41:22.511Z,19.10
2022-08-24T00:43:55.435Z,19.10
2022-08-24T00:46:29.403Z,19.10
2022-08-24T00:49:02.752Z,19.10
2022-08-24T00:51:37.105Z,19.10
2022-08-24T00:54:09.547Z,19.00
2022-08-24T00:56:42.087Z,19.00
2022-08-24T00:59:13.454Z,19.00
2022-08-24T01:01:44.250Z,19.00
2022-08-24T01:04:17.828Z,18.90
2022-08-24T01:06:47.301Z,18.90
2022-08-24T01:09:15.510Z,18.80
2022-08-24T01:11:45.224Z,18.80
2022-08-24T01:14:13.441Z,18.80
2022-08-24T01:17:00.637Z,18.80
2022-08-24T01:19:36.256Z,18.80
2022-08-24T01:22:17.990Z,18.70
2022-08-24T01:24:47.542Z,18.80
2022-08-24T01:27:17.450Z,18.80
2022-08-24T01:29:48.783Z,18.80
2022-08-24T01:32:20.912Z,18.80
2022-08-24T01:34:49.758Z,18.80
2022-08-24T01:37:17.941Z,18.70
2022-08-24T01:39:49.764Z,18.70
2022-08-24T01:42:17.930Z,18.70
2022-08-24T01:44:47.070Z,18.70
2022-08-24T01:47:17.638Z,18.70
2022-08-24T01:49:48.304Z,18.70
2022-08-24T01:52:21.810Z,18.70
2022-08-24T01:54:52.362Z,18.70
2022-08-24T01:57:20.509Z,18.80
2022-08-24T01:59:51.308Z,18.80
2022-08-24T02:02:23.107Z,18.80
2022-08-24T02:04:51.185Z,18.90
2022-08-24T02:07:19.626Z,18.90
2022-08-24T02:09:48.191Z,18.90
2022-08-24T02:12:19.194Z,18.90
2022-08-24T02:14:48.425Z,19.00
2022-08-24T02:17:16.969Z,19.00
2022-08-24T02:19:46.174Z,19.00
2022-08-24T02:22:14.324Z,19.00
2022-08-24T02:24:42.503Z,19.00
2022-08-24T02:27:10.684Z,19.00
2022-08-24T02:29:40.382Z,19.10
2022-08-24T02:32:08.871Z,19.10
2022-08-24T02:34:37.052Z,19.10
2022-08-24T02:37:05.574Z,19.00
2022-08-24T02:39:34.093Z,19.00
2022-08-24T02:42:06.281Z,19.00
2022-08-24T02:44:35.105Z,19.00
2022-08-24T02:47:04.881Z,19.00
2022-08-24T02:49:36.014Z,18.90
2022-08-24T02:52:05.541Z,18.90
2022-08-24T02:54:36.477Z,18.80
2022-08-24T02:57:05.340Z,18.80
2022-08-24T02:59:33.555Z,18.80
2022-08-24T03:02:01.925Z,18.70
2022-08-24T03:04:32.876Z,18.70
2022-08-24T03:07:02.421Z,18.70
2022-08-24T03:09:30.723Z,18.70
2022-08-24T03:11:59.774Z,18.70
2022-08-24T03:14:27.898Z,18.70
2022-08-24T03:16:56.127Z,18.70
2022-08-24T03:19:24.247Z,18.70
2022-08-24T03:21:54.800Z,18.70
2022-08-24T03:24:23.363Z,18.60
2022-08-24T03:26:51.824Z,18.60
2022-08-24T03:29:19.973Z,18.60
2022-08-24T03:31:49.250Z,18.60
2022-08-24T03:34:20.962Z,18.60
2022-08-24T03:36:49.202Z,18.60
2022-08-24T03:39:18.953Z,18.60
2022-08-24T03:41:50.383Z,18.60
2022-08-24T03:44:22.938Z,18.60
2022-08-24T03:46:52.245Z,18.60
2022-08-24T03:49:21.994Z,18.60
2022-08-24T03:51:50.970Z,18.60
2022-08-24T03:54:23.657Z,18.50
2022-08-24T03:56:52.166Z,18.50
2022-08-24T03:59:20.705Z,18.50
2022-08-24T04:01:51.981Z,18.50
2022-08-24T04:04:19.992Z,18.50
2022-08-24T04:06:48.539Z,18.50
2022-08-24T04:09:18.155Z,18.50
2022-08-24T04:11:51.789Z,18.40
2022-08-24T04:14:27.100Z,18.50
2022-08-24T04:17:22.074Z,18.50
2022-08-24T04:19:58.404Z,18.50
2022-08-24T04:22:31.859Z,18.40
2022-08-24T04:24:59.914Z,18.50
2022-08-24T04:27:31.106Z,18.50
2022-08-24T04:30:00.195Z,18.50
2022-08-24T04:32:35.238Z,18.50
2022-08-24T04:35:03.477Z,18.60
2022-08-24T04:37:32.373Z,18.60
2022-08-24T04:40:00.569Z,18.60
2022-08-24T04:42:37.363Z,18.60
2022-08-24T04:45:06.008Z,18.60
2022-08-24T04:47:34.128Z,18.70
2022-08-24T04:50:02.280Z,18.70
2022-08-24T04:52:30.880Z,18.80
2022-08-24T04:54:59.122Z,18.90
2022-08-24T04:57:28.143Z,18.90
2022-08-24T05:00:00.025Z,18.80
2022-08-24T05:02:28.262Z,18.90
2022-08-24T05:04:58.582Z,18.90
2022-08-24T05:07:26.826Z,18.90
2022-08-24T05:09:56.192Z,19.00
2022-08-24T05:12:27.195Z,19.00
2022-08-24T05:15:03.143Z,19.00
2022-08-24T05:17:37.169Z,19.10
2022-08-24T05:20:06.417Z,19.20
2022-08-24T05:22:34.613Z,19.30
2022-08-24T05:25:03.546Z,19.40
2022-08-24T05:27:31.794Z,19.50
2022-08-24T05:30:03.204Z,19.60
2022-08-24T05:32:31.910Z,19.60
2022-08-24T05:35:01.656Z,19.70
2022-08-24T05:37:30.115Z,19.80
2022-08-24T05:40:17.069Z,19.80
2022-08-24T05:42:49.340Z,19.80
2022-08-24T05:45:19.318Z,19.90
2022-08-24T05:47:47.486Z,19.90
2022-08-24T05:50:34.113Z,19.90
2022-08-24T05:53:02.646Z,20.00
2022-08-24T05:55:31.034Z,20.10
2022-08-24T05:57:59.121Z,20.20
2022-08-24T06:00:28.946Z,20.30
2022-08-24T06:02:57.059Z,20.40
2022-08-24T06:05:25.161Z,20.50
2022-08-24T06:07:53.935Z,20.60
2022-08-24T06:10:36.312Z,20.60
2022-08-24T06:13:05.404Z,20.70
2022-08-24T06:15:35.492Z,20.80
2022-08-24T06:18:04.398Z,20.90
2022-08-24T06:20:33.153Z,21.00
2022-08-24T06:23:01.455Z,21.20
2022-08-24T06:25:57.877Z,21.20
2022-08-24T06:28:26.553Z,21.30
2022-08-24T06:31:04.561Z,21.30
2022-08-24T06:33:32.918Z,21.50
2022-08-24T06:36:01.688Z,21.60
2022-08-24T06:38:31.640Z,21.70
2022-08-24T06:41:00.455Z,21.80
2022-08-24T06:43:29.172Z,21.80
2022-08-24T06:46:03.792Z,21.80
2022-08-24T06:48:36.848Z,21.80
2022-08-24T06:51:10.656Z,21.70
2022-08-24T06:53:40.087Z,21.70
2022-08-24T06:56:09.939Z,21.70
2022-08-24T06:58:40.028Z,21.80
2022-08-24T07:01:16.378Z,21.90
2022-08-24T07:03:45.055Z,21.90
2022-08-24T07:06:24.785Z,22.00
2022-08-24T07:08:56.460Z,22.10
2022-08-24T07:11:25.500Z,22.30
2022-08-24T07:13:54.705Z,22.40
2022-08-24T07:16:24.314Z,22.50
2022-08-24T07:18:58.350Z,22.50
2022-08-24T07:21:28.222Z,22.70
2022-08-24T07:23:58.141Z,22.50
2022-08-24T07:26:29.875Z,22.60
2022-08-24T07:29:05.184Z,22.70
2022-08-24T07:31:44.671Z,22.60
2022-08-24T07:34:34.394Z,22.30
2022-08-24T07:37:03.743Z,22.70
2022-08-24T07:39:32.209Z,23.00
2022-08-24T07:42:20.995Z,23.20
2022-08-24T07:44:48.693Z,23.70
2022-08-24T07:47:37.545Z,24.20
2022-08-24T07:50:14.044Z,24.70
2022-08-24T07:52:42.678Z,25.50
2022-08-24T07:55:12.059Z,26.80
2022-08-24T07:57:40.999Z,28.60
2022-08-24T08:00:13.402Z,30.00
2022-08-24T08:02:50.401Z,30.80
2022-08-24T08:05:21.618Z,30.50
2022-08-24T08:07:53.360Z,31.00
2022-08-24T08:10:23.327Z,31.30
2022-08-24T08:12:52.894Z,31.10
2022-08-24T08:15:21.387Z,30.50
2022-08-24T08:18:02.736Z,30.00
2022-08-24T08:20:31.931Z,29.80
2022-08-24T08:23:17.869Z,29.40
2022-08-24T08:25:58.414Z,29.10
2022-08-24T08:28:39.050Z,29.40
2022-08-24T08:31:07.434Z,31.20
2022-08-24T08:33:37.289Z,33.00
2022-08-24T08:36:09.299Z,33.70
2022-08-24T08:38:43.050Z,34.20
2022-08-24T08:41:42.291Z,34.30
2022-08-24T08:44:30.591Z,33.60
2022-08-24T08:47:07.614Z,33.10
2022-08-24T08:50:00.328Z,32.30
2022-08-24T08:52:55.822Z,31.20
2022-08-24T08:55:31.673Z,30.10
2022-08-24T08:58:17.406Z,29.20
2022-08-24T09:01:01.444Z,28.70
2022-08-24T09:04:03.420Z,28.20
2022-08-24T09:07:23.069Z,27.80
2022-08-24T09:10:17.508Z,27.70
2022-08-24T09:12:59.182Z,27.10
2022-08-24T09:15:57.514Z,26.90
2022-08-24T09:18:38.549Z,26.20
2022-08-24T09:21:28.263Z,25.80
2022-08-24T09:24:15.955Z,25.50
2022-08-24T09:26:56.666Z,25.50
2022-08-24T09:29:55.929Z,25.30
2022-08-24T09:32:59.169Z,25.40
2022-08-24T09:35:46.083Z,25.30
2022-08-24T09:38:23.725Z,25.50
2022-08-24T09:41:15.629Z,25.50
2022-08-24T09:44:05.244Z,25.50
2022-08-24T09:47:13.554Z,25.60
2022-08-24T09:50:01.595Z,25.40
2022-08-24T09:52:50.276Z,25.30
2022-08-24T09:55:49.271Z,25.50
2022-08-24T09:58:25.378Z,25.40
2022-08-24T10:01:04.152Z,25.30
2022-08-24T10:03:50.540Z,25.30
2022-08-24T10:06:29.684Z,25.00
2022-08-24T10:09:41.129Z,24.10
2022-08-24T10:12:17.415Z,24.60
2022-08-24T10:14:56.340Z,25.40
2022-08-24T10:17:36.357Z,25.80
2022-08-24T10:20:13.232Z,26.20
2022-08-24T10:23:05.445Z,26.40
2022-08-24T10:25:40.034Z,26.60
2022-08-24T10:28:37.595Z,26.90
2022-08-24T10:31:12.613Z,27.40
2022-08-24T10:33:55.720Z,29.10
2022-08-24T10:36:49.636Z,31.20
2022-08-24T10:39:43.734Z,31.30
2022-08-24T10:43:02.513Z,29.90
2022-08-24T10:46:02.239Z,29.10
2022-08-24T10:48:55.932Z,27.60
2022-08-24T10:51:38.320Z,28.00
2022-08-24T10:54:07.012Z,29.90
2022-08-24T10:56:42.123Z,31.40
2022-08-24T10:59:21.568Z,32.00
2022-08-24T11:02:12.889Z,33.60
2022-08-24T11:04:43.470Z,32.50
2022-08-24T11:07:18.108Z,33.20
2022-08-24T11:09:51.591Z,30.80
2022-08-24T11:12:29.052Z,30.60
2022-08-24T11:14:59.491Z,30.50
2022-08-24T11:17:29.732Z,30.00
2022-08-24T11:19:59.709Z,29.80
2022-08-24T11:22:43.008Z,30.10
2022-08-24T11:25:16.835Z,29.90
2022-08-24T11:27:47.842Z,30.70
2022-08-24T11:30:24.708Z,31.20
2022-08-24T11:32:55.442Z,31.40
2022-08-24T11:35:27.113Z,31.70
2022-08-24T11:37:57.351Z,31.90
2022-08-24T11:40:29.271Z,31.80
2022-08-24T11:43:12.896Z,30.80
2022-08-24T11:45:47.256Z,30.70
2022-08-24T11:48:24.715Z,30.30
2022-08-24T11:51:02.133Z,31.10
2022-08-24T11:56:20.525Z,30.40
2022-08-24T11:58:57.643Z,29.20
2022-08-24T12:01:31.454Z,28.70
2022-08-24T12:04:16.308Z,29.20
2022-08-24T12:06:57.608Z,30.20
2022-08-24T12:09:45.332Z,30.00
2022-08-24T12:12:19.002Z,29.30
2022-08-24T12:15:00.222Z,29.00
2022-08-24T12:17:34.314Z,29.50
2022-08-24T12:20:06.410Z,29.90
2022-08-24T12:22:36.932Z,30.60
2022-08-24T12:25:28.843Z,31.30
2022-08-24T12:27:58.583Z,31.80
2022-08-24T12:30:28.112Z,32.40
2022-08-24T12:33:00.396Z,32.90
2022-08-24T12:35:33.167Z,33.50
2022-08-24T12:38:09.185Z,33.80
2022-08-24T12:40:41.651Z,34.00
2022-08-24T12:43:14.814Z,34.00
2022-08-24T12:45:42.953Z,33.80
2022-08-24T12:48:17.571Z,31.70
2022-08-24T12:51:10.756Z,30.60
2022-08-24T12:54:01.563Z,30.70
2022-08-24T12:56:56.255Z,30.80
2022-08-24T12:59:26.527Z,31.10
2022-08-24T13:02:02.924Z,32.10
2022-08-24T13:04:38.812Z,32.80
2022-08-24T13:07:10.616Z,33.50
2022-08-24T13:09:44.214Z,33.40
2022-08-24T13:12:49.682Z,34.00
2022-08-24T13:15:28.009Z,34.80
2022-08-24T13:18:02.933Z,35.40
2022-08-24T13:20:56.568Z,33.10
2022-08-24T13:23:27.752Z,32.60
2022-08-24T13:25:59.190Z,33.30
2022-08-24T13:28:44.217Z,32.90
2022-08-24T13:31:28.396Z,32.80
2022-08-24T13:34:01.182Z,31.60
2022-08-24T13:36:55.001Z,32.70
2022-08-24T13:39:59.017Z,33.30
2022-08-24T13:42:54.210Z,33.00
2022-08-24T13:45:34.930Z,32.40
2022-08-24T13:48:35.985Z,31.90
2022-08-24T13:51:30.082Z,30.40
2022-08-24T13:54:20.344Z,30.40
2022-08-24T13:57:18.407Z,29.90
2022-08-24T14:00:01.836Z,30.00
2022-08-24T14:02:39.857Z,29.90
2022-08-24T14:05:19.301Z,30.10
2022-08-24T14:07:57.098Z,30.10
2022-08-24T14:10:43.099Z,30.30
2022-08-24T14:13:27.699Z,30.50
2022-08-24T14:16:14.622Z,30.80
2022-08-24T14:18:59.037Z,31.10
2022-08-24T14:21:38.615Z,30.30
2022-08-24T14:24:12.040Z,30.00
2022-08-24T14:27:06.905Z,30.90
2022-08-24T14:29:41.796Z,30.50
2022-08-24T14:32:41.733Z,29.90
2022-08-24T14:35:28.880Z,29.30
2022-08-24T14:38:24.501Z,29.30
2022-08-24T14:41:18.382Z,29.00
2022-08-24T14:44:11.508Z,29.80
2022-08-24T14:46:50.953Z,30.60
2022-08-24T14:49:27.747Z,31.50
2022-08-24T14:52:04.589Z,32.60
2022-08-24T14:54:41.240Z,32.30
2022-08-24T14:57:27.337Z,31.70
2022-08-24T15:00:12.122Z,31.60
2022-08-24T15:03:17.185Z,33.00
2022-08-24T15:06:15.939Z,34.30
2022-08-24T15:08:43.853Z,35.20
2022-08-24T15:11:15.295Z,34.40
2022-08-24T15:13:48.329Z,31.80
2022-08-24T15:16:23.063Z,30.60
2022-08-24T15:19:03.404Z,30.40
2022-08-24T15:21:46.880Z,30.50
2022-08-24T15:24:29.181Z,30.30
2022-08-24T15:27:08.329Z,29.70
2022-08-24T15:29:48.222Z,29.10
2022-08-24T15:32:18.532Z,28.60
2022-08-24T15:34:49.745Z,28.80
2022-08-24T15:37:26.588Z,28.80
2022-08-24T15:39:54.812Z,28.90
2022-08-24T15:42:23.455Z,29.20
2022-08-24T15:44:52.294Z,29.30
2022-08-24T15:47:29.176Z,29.50
2022-08-24T15:50:00.982Z,28.90
2022-08-24T15:52:42.601Z,29.20
2022-08-24T15:55:44.145Z,29.10
2022-08-24T15:58:32.830Z,28.80
2022-08-24T16:01:36.824Z,29.10
2022-08-24T16:04:09.608Z,29.40
2022-08-24T16:06:41.506Z,29.40
2022-08-24T16:09:15.421Z,29.40
2022-08-24T16:11:45.833Z,29.40
2022-08-24T16:14:24.942Z,29.10
2022-08-24T16:16:54.394Z,29.30
2022-08-24T16:19:26.927Z,30.10
2022-08-24T16:21:59.505Z,30.60
2022-08-24T16:24:35.991Z,30.90
2022-08-24T16:27:07.897Z,30.80
2022-08-24T16:29:55.631Z,30.10
2022-08-24T16:32:31.914Z,30.10
2022-08-24T16:35:23.057Z,29.50
2022-08-24T16:37:52.320Z,30.10
2022-08-24T16:40:20.897Z,30.30
2022-08-24T16:42:49.213Z,30.30
2022-08-24T16:45:20.267Z,29.90
2022-08-24T16:47:49.331Z,29.50
2022-08-24T16:50:19.574Z,29.60
2022-08-24T16:52:49.053Z,29.40
2022-08-24T16:55:17.400Z,29.20
2022-08-24T16:57:46.375Z,29.30
2022-08-24T17:00:17.489Z,29.00
2022-08-24T17:02:48.109Z,28.80
2022-08-24T17:05:16.911Z,28.80
2022-08-24T17:07:45.657Z,28.90
2022-08-24T17:10:18.813Z,29.10
2022-08-24T17:12:50.036Z,29.10
2022-08-24T17:15:18.112Z,29.00
2022-08-24T17:17:54.230Z,28.70
2022-08-24T17:20:22.435Z,28.30
2022-08-24T17:22:51.718Z,28.10
2022-08-24T17:25:21.214Z,27.90
2022-08-24T17:27:49.534Z,27.70
2022-08-24T17:30:18.518Z,27.30
2022-08-24T17:32:48.005Z,27.30
2022-08-24T17:35:16.632Z,27.30
2022-08-24T17:37:45.111Z,27.10
2022-08-24T17:40:15.572Z,26.90
2022-08-24T17:42:51.142Z,26.70
2022-08-24T17:45:22.808Z,26.60
2022-08-24T17:47:52.451Z,26.40
2022-08-24T17:50:24.140Z,26.20
2022-08-24T17:52:59.185Z,26.10
2022-08-24T17:55:34.567Z,26.00
2022-08-24T17:58:04.189Z,25.80
2022-08-24T18:00:32.268Z,25.80
2022-08-24T18:03:00.472Z,25.80
2022-08-24T18:05:29.450Z,25.60
2022-08-24T18:07:57.795Z,25.50
2022-08-24T18:10:27.940Z,25.50
2022-08-24T18:12:57.773Z,25.50
2022-08-24T18:15:34.728Z,25.30
2022-08-24T18:18:08.363Z,25.30
2022-08-24T18:20:39.162Z,25.20
2022-08-24T18:23:11.479Z,25.20
2022-08-24T18:25:44.748Z,25.00
2022-08-24T18:28:13.113Z,24.90
2022-08-24T18:30:42.715Z,24.90
2022-08-24T18:33:12.212Z,24.90
2022-08-24T18:35:40.538Z,24.80
2022-08-24T18:38:08.785Z,24.70
2022-08-24T18:40:37.143Z,24.80
2022-08-24T18:43:05.721Z,24.60
2022-08-24T18:45:34.664Z,24.50
2022-08-24T18:48:04.611Z,24.50
2022-08-24T18:50:36.015Z,24.40
2022-08-24T18:53:06.973Z,24.40
2022-08-24T18:55:37.122Z,24.30
2022-08-24T18:58:05.412Z,24.30
2022-08-24T19:00:34.199Z,24.30
2022-08-24T19:03:06.693Z,24.30
2022-08-24T19:05:35.439Z,24.30
2022-08-24T19:08:04.198Z,24.30
2022-08-24T19:10:38.080Z,24.30
2022-08-24T19:13:10.466Z,24.30
2022-08-24T19:15:40.301Z,24.20
2022-08-24T19:18:11.723Z,24.20
2022-08-24T19:20:45.967Z,24.10
2022-08-24T19:23:20.033Z,24.10
2022-08-24T19:25:48.935Z,24.00
2022-08-24T19:28:17.328Z,23.90
2022-08-24T19:30:46.900Z,23.90
2022-08-24T19:33:23.269Z,23.80
2022-08-24T19:35:52.963Z,23.70
2022-08-24T19:38:25.669Z,23.70
2022-08-24T19:40:56.997Z,23.70
2022-08-24T19:43:26.881Z,23.70
2022-08-24T19:46:07.566Z,23.70
2022-08-24T19:48:39.545Z,23.60
2022-08-24T19:51:11.783Z,23.60
2022-08-24T19:53:40.047Z,23.60
2022-08-24T19:56:08.936Z,23.50
2022-08-24T19:58:46.346Z,23.50
2022-08-24T20:01:18.725Z,23.40
2022-08-24T20:03:48.782Z,23.30
2022-08-24T20:06:20.496Z,23.30
2022-08-24T20:08:49.291Z,23.20
2022-08-24T20:11:19.060Z,23.10
2022-08-24T20:13:49.870Z,23.10
2022-08-24T20:16:20.843Z,23.10
2022-08-24T20:18:50.490Z,23.00
2022-08-24T20:21:19.332Z,23.10
2022-08-24T20:23:47.481Z,23.10
2022-08-24T20:26:15.825Z,23.00
2022-08-24T20:28:47.113Z,23.00
2022-08-24T20:31:16.463Z,23.00
2022-08-24T20:33:44.520Z,22.90
2022-08-24T20:36:23.966Z,22.80
2022-08-24T20:38:52.955Z,22.80
2022-08-24T20:41:21.417Z,22.80
2022-08-24T20:43:49.597Z,22.80
2022-08-24T20:46:17.972Z,22.80
2022-08-24T20:48:47.596Z,22.70
2022-08-24T20:51:25.756Z,22.70
2022-08-24T20:53:54.309Z,22.60
2022-08-24T20:56:30.878Z,22.50
2022-08-24T20:59:01.568Z,22.50
2022-08-24T21:01:29.867Z,22.40
2022-08-24T21:04:02.825Z,22.40
2022-08-24T21:06:35.077Z,22.40
2022-08-24T21:09:04.260Z,22.30
2022-08-24T21:11:33.376Z,22.30
2022-08-24T21:14:01.684Z,22.40
2022-08-24T21:16:30.171Z,22.30
2022-08-24T21:18:58.371Z,22.30
2022-08-24T21:21:27.450Z,22.20
2022-08-24T21:23:56.875Z,22.20
2022-08-24T21:26:26.923Z,22.20
2022-08-24T21:28:56.202Z,22.10
2022-08-24T21:31:24.679Z,22.10
2022-08-24T21:34:10.988Z,22.10
2022-08-24T21:36:39.953Z,22.10
2022-08-24T21:39:11.069Z,22.10
2022-08-24T21:41:39.939Z,22.10
2022-08-24T21:44:08.298Z,22.00
2022-08-24T21:46:38.794Z,22.00
2022-08-24T21:49:06.965Z,22.00
2022-08-24T21:51:40.290Z,22.00
2022-08-24T21:54:10.883Z,21.90
2022-08-24T21:56:39.190Z,21.90
2022-08-24T21:59:08.154Z,21.90
2022-08-24T22:01:37.349Z,21.90
2022-08-24T22:04:05.975Z,21.90
2022-08-24T22:06:34.547Z,21.80
2022-08-24T22:09:03.304Z,21.70
2022-08-24T22:11:33.670Z,21.80
2022-08-24T22:14:03.384Z,21.70
2022-08-24T22:16:32.626Z,21.70
2022-08-24T22:19:05.219Z,21.70
2022-08-24T22:21:35.750Z,21.70
2022-08-24T22:24:05.359Z,21.60
2022-08-24T22:26:36.157Z,21.60
2022-08-24T22:29:05.415Z,21.60
2022-08-24T22:31:36.411Z,21.60
2022-08-24T22:34:08.002Z,21.50
2022-08-24T22:36:36.308Z,21.50
2022-08-24T22:39:05.828Z,21.50
2022-08-24T22:41:35.567Z,21.50
2022-08-24T22:44:20.032Z,21.50
2022-08-24T22:46:50.052Z,21.50
2022-08-24T22:49:19.369Z,21.50
2022-08-24T22:51:48.014Z,21.50
2022-08-24T22:54:16.803Z,21.40
2022-08-24T22:56:48.620Z,21.40
2022-08-24T22:59:20.584Z,21.40
2022-08-24T23:01:50.357Z,21.40
2022-08-24T23:04:21.285Z,21.40
2022-08-24T23:06:49.721Z,21.30
2022-08-24T23:09:17.912Z,21.30
2022-08-24T23:11:47.511Z,21.30
2022-08-24T23:14:16.746Z,21.20
2022-08-24T23:16:47.841Z,21.20
2022-08-24T23:19:35.012Z,21.20
2022-08-24T23:22:03.779Z,21.10
2022-08-24T23:24:31.861Z,21.20
2022-08-24T23:27:02.122Z,21.20
2022-08-24T23:29:31.135Z,21.20
2022-08-24T23:31:59.429Z,21.10
2022-08-24T23:34:27.671Z,21.20
2022-08-24T23:36:55.782Z,21.10
2022-08-24T23:39:24.203Z,21.10
2022-08-24T23:41:53.512Z,21.10
2022-08-24T23:44:25.930Z,21.10
2022-08-24T23:46:54.340Z,21.10
2022-08-24T23:49:24.094Z,21.10
2022-08-24T23:51:52.965Z,21.00
2022-08-24T23:54:22.606Z,21.00
2022-08-24T23:56:52.977Z,21.00
2022-08-24T23:59:26.578Z,21.00
